sensor_id;sensor_type;location;lat;lon;timestamp;P1;durP1;ratioP1;P2;durP2;ratioP2
13085;SDS011;6609;49.882;8.664;2023-06-22T00:00:10;11.00;;;7.77;;
13085;SDS011;6609;49.882;8.664;2023-06-22T00:02:37;11.23;;;7.53;;
13085;SDS011;6609;49.882;8.664;2023-06-22T00:05:04;8.37;;;7.27;;
13085;SDS011;6609;49.882;8.664;2023-06-22T00:07:31;10.80;;;7.57;;
13085;SDS011;6609;49.882;8.664;2023-06-22T00:09:58;12.27;;;8.00;;
13085;SDS011;6609;49.882;8.664;2023-06-22T00:12:29;11.57;;;7.30;;
13085;SDS011;6609;49.882;8.664;2023-06-22T00:14:57;10.57;;;7.03;;
13085;SDS011;6609;49.882;8.664;2023-06-22T00:17:24;10.27;;;7.63;;
13085;SDS011;6609;49.882;8.664;2023-06-22T00:19:51;9.27;;;7.07;;
13085;SDS011;6609;49.882;8.664;2023-06-22T00:22:20;13.50;;;7.80;;
13085;SDS011;6609;49.882;8.664;2023-06-22T00:24:53;11.27;;;7.30;;
13085;SDS011;6609;49.882;8.664;2023-06-22T00:27:19;10.67;;;7.47;;
13085;SDS011;6609;49.882;8.664;2023-06-22T00:29:48;12.23;;;8.37;;
13085;SDS011;6609;49.882;8.664;2023-06-22T00:32:14;10.83;;;7.40;;
13085;SDS011;6609;49.882;8.664;2023-06-22T00:34:42;13.13;;;8.30;;
13085;SDS011;6609;49.882;8.664;2023-06-22T00:37:08;9.87;;;7.10;;
13085;SDS011;6609;49.882;8.664;2023-06-22T00:39:36;12.37;;;8.07;;
13085;SDS011;6609;49.882;8.664;2023-06-22T00:42:03;9.80;;;7.87;;
13085;SDS011;6609;49.882;8.664;2023-06-22T00:44:31;10.00;;;8.07;;
13085;SDS011;6609;49.882;8.664;2023-06-22T00:46:59;9.23;;;7.30;;
13085;SDS011;6609;49.882;8.664;2023-06-22T00:49:26;11.07;;;7.23;;
13085;SDS011;6609;49.882;8.664;2023-06-22T00:51:53;9.57;;;7.70;;
13085;SDS011;6609;49.882;8.664;2023-06-22T00:54:20;9.77;;;7.20;;
13085;SDS011;6609;49.882;8.664;2023-06-22T00:56:49;12.43;;;7.27;;
13085;SDS011;6609;49.882;8.664;2023-06-22T00:59:17;9.70;;;7.53;;
13085;SDS011;6609;49.882;8.664;2023-06-22T01:01:44;10.37;;;8.13;;
13085;SDS011;6609;49.882;8.664;2023-06-22T01:04:13;11.93;;;8.37;;
13085;SDS011;6609;49.882;8.664;2023-06-22T01:06:41;10.33;;;7.23;;
13085;SDS011;6609;49.882;8.664;2023-06-22T01:09:20;11.00;;;8.23;;
13085;SDS011;6609;49.882;8.664;2023-06-22T01:11:53;13.77;;;8.40;;
13085;SDS011;6609;49.882;8.664;2023-06-22T01:14:27;9.80;;;7.63;;
13085;SDS011;6609;49.882;8.664;2023-06-22T01:16:59;11.57;;;8.20;;
13085;SDS011;6609;49.882;8.664;2023-06-22T01:19:34;11.40;;;8.13;;
13085;SDS011;6609;49.882;8.664;2023-06-22T01:22:04;12.63;;;8.10;;
13085;SDS011;6609;49.882;8.664;2023-06-22T01:24:41;11.30;;;8.10;;
13085;SDS011;6609;49.882;8.664;2023-06-22T01:27:17;9.60;;;7.70;;
13085;SDS011;6609;49.882;8.664;2023-06-22T01:29:59;10.37;;;7.67;;
13085;SDS011;6609;49.882;8.664;2023-06-22T01:32:30;15.13;;;9.53;;
13085;SDS011;6609;49.882;8.664;2023-06-22T01:34:59;11.40;;;8.83;;
13085;SDS011;6609;49.882;8.664;2023-06-22T01:37:27;10.87;;;8.97;;
13085;SDS011;6609;49.882;8.664;2023-06-22T01:39:54;12.27;;;9.27;;
13085;SDS011;6609;49.882;8.664;2023-06-22T01:42:22;11.00;;;8.10;;
13085;SDS011;6609;49.882;8.664;2023-06-22T01:44:51;10.83;;;8.50;;
13085;SDS011;6609;49.882;8.664;2023-06-22T01:47:19;12.07;;;8.60;;
13085;SDS011;6609;49.882;8.664;2023-06-22T01:49:47;12.73;;;9.13;;
13085;SDS011;6609;49.882;8.664;2023-06-22T01:52:14;10.10;;;8.13;;
13085;SDS011;6609;49.882;8.664;2023-06-22T01:54:41;11.13;;;9.00;;
13085;SDS011;6609;49.882;8.664;2023-06-22T01:57:08;10.87;;;8.80;;
13085;SDS011;6609;49.882;8.664;2023-06-22T01:59:37;12.57;;;8.73;;
13085;SDS011;6609;49.882;8.664;2023-06-22T02:02:09;12.17;;;8.10;;
13085;SDS011;6609;49.882;8.664;2023-06-22T02:04:42;11.97;;;8.53;;
13085;SDS011;6609;49.882;8.664;2023-06-22T02:07:14;14.03;;;9.07;;
13085;SDS011;6609;49.882;8.664;2023-06-22T02:09:43;13.27;;;9.00;;
13085;SDS011;6609;49.882;8.664;2023-06-22T02:12:11;11.80;;;9.10;;
13085;SDS011;6609;49.882;8.664;2023-06-22T02:14:39;13.00;;;9.10;;
13085;SDS011;6609;49.882;8.664;2023-06-22T02:17:08;11.30;;;8.90;;
13085;SDS011;6609;49.882;8.664;2023-06-22T02:19:36;13.27;;;8.90;;
13085;SDS011;6609;49.882;8.664;2023-06-22T02:22:05;12.47;;;8.80;;
13085;SDS011;6609;49.882;8.664;2023-06-22T02:24:32;11.37;;;8.53;;
13085;SDS011;6609;49.882;8.664;2023-06-22T02:26:58;12.13;;;9.07;;
13085;SDS011;6609;49.882;8.664;2023-06-22T02:29:26;11.37;;;8.77;;
13085;SDS011;6609;49.882;8.664;2023-06-22T02:31:53;10.83;;;8.03;;
13085;SDS011;6609;49.882;8.664;2023-06-22T02:34:20;12.97;;;9.23;;
13085;SDS011;6609;49.882;8.664;2023-06-22T02:36:48;10.10;;;8.90;;
13085;SDS011;6609;49.882;8.664;2023-06-22T02:39:18;11.93;;;9.20;;
13085;SDS011;6609;49.882;8.664;2023-06-22T02:41:47;14.03;;;9.60;;
13085;SDS011;6609;49.882;8.664;2023-06-22T02:44:14;11.43;;;8.83;;
13085;SDS011;6609;49.882;8.664;2023-06-22T02:46:41;12.53;;;8.77;;
13085;SDS011;6609;49.882;8.664;2023-06-22T02:49:08;11.10;;;8.70;;
13085;SDS011;6609;49.882;8.664;2023-06-22T02:51:37;12.50;;;9.63;;
13085;SDS011;6609;49.882;8.664;2023-06-22T02:54:06;10.37;;;8.60;;
13085;SDS011;6609;49.882;8.664;2023-06-22T02:56:34;10.67;;;8.63;;
13085;SDS011;6609;49.882;8.664;2023-06-22T02:59:01;11.80;;;8.80;;
13085;SDS011;6609;49.882;8.664;2023-06-22T03:01:28;12.53;;;9.23;;
13085;SDS011;6609;49.882;8.664;2023-06-22T03:04:02;12.67;;;9.63;;
13085;SDS011;6609;49.882;8.664;2023-06-22T03:06:29;11.00;;;8.50;;
13085;SDS011;6609;49.882;8.664;2023-06-22T03:08:58;13.00;;;8.57;;
13085;SDS011;6609;49.882;8.664;2023-06-22T03:11:26;11.67;;;9.50;;
13085;SDS011;6609;49.882;8.664;2023-06-22T03:13:55;12.03;;;8.60;;
13085;SDS011;6609;49.882;8.664;2023-06-22T03:16:22;11.57;;;8.20;;
13085;SDS011;6609;49.882;8.664;2023-06-22T03:18:49;12.27;;;9.67;;
13085;SDS011;6609;49.882;8.664;2023-06-22T03:21:15;10.53;;;9.00;;
13085;SDS011;6609;49.882;8.664;2023-06-22T03:23:42;14.23;;;9.37;;
13085;SDS011;6609;49.882;8.664;2023-06-22T03:26:09;13.70;;;9.87;;
13085;SDS011;6609;49.882;8.664;2023-06-22T03:28:37;13.60;;;10.20;;
13085;SDS011;6609;49.882;8.664;2023-06-22T03:31:05;11.17;;;9.07;;
13085;SDS011;6609;49.882;8.664;2023-06-22T03:33:32;14.37;;;9.23;;
13085;SDS011;6609;49.882;8.664;2023-06-22T03:35:59;13.50;;;9.30;;
13085;SDS011;6609;49.882;8.664;2023-06-22T03:38:26;11.87;;;9.47;;
13085;SDS011;6609;49.882;8.664;2023-06-22T03:40:53;11.20;;;9.17;;
13085;SDS011;6609;49.882;8.664;2023-06-22T03:43:20;13.47;;;9.37;;
13085;SDS011;6609;49.882;8.664;2023-06-22T03:45:46;13.23;;;9.57;;
13085;SDS011;6609;49.882;8.664;2023-06-22T03:48:14;11.87;;;9.63;;
13085;SDS011;6609;49.882;8.664;2023-06-22T03:50:42;12.27;;;9.53;;
13085;SDS011;6609;49.882;8.664;2023-06-22T03:53:09;10.63;;;9.53;;
13085;SDS011;6609;49.882;8.664;2023-06-22T03:55:36;11.37;;;9.03;;
13085;SDS011;6609;49.882;8.664;2023-06-22T03:58:03;13.97;;;10.03;;
13085;SDS011;6609;49.882;8.664;2023-06-22T04:00:31;12.10;;;9.93;;
13085;SDS011;6609;49.882;8.664;2023-06-22T04:02:58;13.30;;;10.30;;
13085;SDS011;6609;49.882;8.664;2023-06-22T04:05:26;14.97;;;9.80;;
13085;SDS011;6609;49.882;8.664;2023-06-22T04:07:53;15.57;;;11.37;;
13085;SDS011;6609;49.882;8.664;2023-06-22T04:10:20;13.77;;;10.93;;
13085;SDS011;6609;49.882;8.664;2023-06-22T04:12:47;11.67;;;9.67;;
13085;SDS011;6609;49.882;8.664;2023-06-22T04:15:15;13.90;;;10.63;;
13085;SDS011;6609;49.882;8.664;2023-06-22T04:17:42;14.10;;;9.60;;
13085;SDS011;6609;49.882;8.664;2023-06-22T04:20:09;12.90;;;10.17;;
13085;SDS011;6609;49.882;8.664;2023-06-22T04:22:37;14.37;;;10.33;;
13085;SDS011;6609;49.882;8.664;2023-06-22T04:25:05;14.37;;;9.83;;
13085;SDS011;6609;49.882;8.664;2023-06-22T04:27:34;12.63;;;10.27;;
13085;SDS011;6609;49.882;8.664;2023-06-22T04:30:05;14.10;;;11.13;;
13085;SDS011;6609;49.882;8.664;2023-06-22T04:32:33;12.60;;;9.90;;
13085;SDS011;6609;49.882;8.664;2023-06-22T04:35:01;12.50;;;10.27;;
13085;SDS011;6609;49.882;8.664;2023-06-22T04:37:29;12.43;;;9.87;;
13085;SDS011;6609;49.882;8.664;2023-06-22T04:39:57;13.13;;;10.67;;
13085;SDS011;6609;49.882;8.664;2023-06-22T04:42:25;15.83;;;10.60;;
13085;SDS011;6609;49.882;8.664;2023-06-22T04:44:52;13.30;;;11.53;;
13085;SDS011;6609;49.882;8.664;2023-06-22T04:47:19;15.67;;;11.40;;
13085;SDS011;6609;49.882;8.664;2023-06-22T04:49:46;18.73;;;11.37;;
13085;SDS011;6609;49.882;8.664;2023-06-22T04:52:15;14.63;;;11.60;;
13085;SDS011;6609;49.882;8.664;2023-06-22T04:54:43;14.13;;;11.37;;
13085;SDS011;6609;49.882;8.664;2023-06-22T04:57:15;14.63;;;11.40;;
13085;SDS011;6609;49.882;8.664;2023-06-22T04:59:42;16.97;;;11.63;;
13085;SDS011;6609;49.882;8.664;2023-06-22T05:02:09;19.23;;;12.23;;
13085;SDS011;6609;49.882;8.664;2023-06-22T05:04:36;15.57;;;11.27;;
13085;SDS011;6609;49.882;8.664;2023-06-22T05:07:04;16.37;;;11.73;;
13085;SDS011;6609;49.882;8.664;2023-06-22T05:09:31;13.33;;;10.50;;
13085;SDS011;6609;49.882;8.664;2023-06-22T05:11:59;13.00;;;11.60;;
13085;SDS011;6609;49.882;8.664;2023-06-22T05:14:29;14.43;;;11.30;;
13085;SDS011;6609;49.882;8.664;2023-06-22T05:16:56;14.13;;;11.10;;
13085;SDS011;6609;49.882;8.664;2023-06-22T05:19:24;15.27;;;12.07;;
13085;SDS011;6609;49.882;8.664;2023-06-22T05:21:56;14.17;;;11.67;;
13085;SDS011;6609;49.882;8.664;2023-06-22T05:24:23;15.63;;;11.33;;
13085;SDS011;6609;49.882;8.664;2023-06-22T05:26:49;13.33;;;11.63;;
13085;SDS011;6609;49.882;8.664;2023-06-22T05:29:17;15.73;;;11.03;;
13085;SDS011;6609;49.882;8.664;2023-06-22T05:31:45;15.30;;;11.57;;
13085;SDS011;6609;49.882;8.664;2023-06-22T05:34:12;14.50;;;11.33;;
13085;SDS011;6609;49.882;8.664;2023-06-22T05:36:39;13.70;;;11.23;;
13085;SDS011;6609;49.882;8.664;2023-06-22T05:39:12;15.93;;;11.63;;
13085;SDS011;6609;49.882;8.664;2023-06-22T05:41:39;14.03;;;11.17;;
13085;SDS011;6609;49.882;8.664;2023-06-22T05:44:06;14.00;;;11.20;;
13085;SDS011;6609;49.882;8.664;2023-06-22T05:46:33;14.07;;;10.93;;
13085;SDS011;6609;49.882;8.664;2023-06-22T05:49:02;13.13;;;10.10;;
13085;SDS011;6609;49.882;8.664;2023-06-22T05:51:29;12.13;;;9.67;;
13085;SDS011;6609;49.882;8.664;2023-06-22T05:53:56;15.10;;;10.90;;
13085;SDS011;6609;49.882;8.664;2023-06-22T05:56:23;12.43;;;9.87;;
13085;SDS011;6609;49.882;8.664;2023-06-22T05:58:50;12.70;;;10.87;;
13085;SDS011;6609;49.882;8.664;2023-06-22T06:01:17;13.33;;;10.30;;
13085;SDS011;6609;49.882;8.664;2023-06-22T06:03:44;14.23;;;11.47;;
13085;SDS011;6609;49.882;8.664;2023-06-22T06:06:12;14.57;;;10.93;;
13085;SDS011;6609;49.882;8.664;2023-06-22T06:08:39;18.27;;;11.13;;
13085;SDS011;6609;49.882;8.664;2023-06-22T06:11:07;11.77;;;10.23;;
13085;SDS011;6609;49.882;8.664;2023-06-22T06:13:37;13.70;;;10.53;;
13085;SDS011;6609;49.882;8.664;2023-06-22T06:16:18;14.47;;;10.40;;
13085;SDS011;6609;49.882;8.664;2023-06-22T06:18:45;11.93;;;9.43;;
13085;SDS011;6609;49.882;8.664;2023-06-22T06:21:14;13.53;;;9.67;;
13085;SDS011;6609;49.882;8.664;2023-06-22T06:23:42;14.00;;;9.70;;
13085;SDS011;6609;49.882;8.664;2023-06-22T06:26:09;14.77;;;10.33;;
13085;SDS011;6609;49.882;8.664;2023-06-22T06:28:35;11.10;;;9.37;;
13085;SDS011;6609;49.882;8.664;2023-06-22T06:31:02;12.67;;;9.60;;
13085;SDS011;6609;49.882;8.664;2023-06-22T06:33:32;12.10;;;8.97;;
13085;SDS011;6609;49.882;8.664;2023-06-22T06:35:59;12.37;;;9.20;;
13085;SDS011;6609;49.882;8.664;2023-06-22T06:38:29;10.73;;;8.73;;
13085;SDS011;6609;49.882;8.664;2023-06-22T06:40:57;11.77;;;8.50;;
13085;SDS011;6609;49.882;8.664;2023-06-22T06:43:24;13.10;;;9.17;;
13085;SDS011;6609;49.882;8.664;2023-06-22T06:45:51;12.13;;;9.37;;
13085;SDS011;6609;49.882;8.664;2023-06-22T06:48:18;12.63;;;9.17;;
13085;SDS011;6609;49.882;8.664;2023-06-22T06:50:45;11.07;;;8.83;;
13085;SDS011;6609;49.882;8.664;2023-06-22T06:53:13;12.17;;;9.40;;
13085;SDS011;6609;49.882;8.664;2023-06-22T06:55:41;10.63;;;8.83;;
13085;SDS011;6609;49.882;8.664;2023-06-22T06:58:10;11.47;;;9.43;;
13085;SDS011;6609;49.882;8.664;2023-06-22T07:00:38;12.20;;;8.63;;
13085;SDS011;6609;49.882;8.664;2023-06-22T07:03:05;11.17;;;8.97;;
13085;SDS011;6609;49.882;8.664;2023-06-22T07:05:33;15.80;;;9.30;;
13085;SDS011;6609;49.882;8.664;2023-06-22T07:08:00;13.60;;;9.07;;
13085;SDS011;6609;49.882;8.664;2023-06-22T07:10:27;10.27;;;8.57;;
13085;SDS011;6609;49.882;8.664;2023-06-22T07:12:56;10.37;;;9.27;;
13085;SDS011;6609;49.882;8.664;2023-06-22T07:15:23;12.90;;;9.97;;
13085;SDS011;6609;49.882;8.664;2023-06-22T07:17:50;12.57;;;9.43;;
13085;SDS011;6609;49.882;8.664;2023-06-22T07:20:17;10.30;;;8.80;;
13085;SDS011;6609;49.882;8.664;2023-06-22T07:22:44;11.57;;;9.20;;
13085;SDS011;6609;49.882;8.664;2023-06-22T07:25:11;12.13;;;9.40;;
13085;SDS011;6609;49.882;8.664;2023-06-22T07:27:43;11.53;;;8.67;;
13085;SDS011;6609;49.882;8.664;2023-06-22T07:30:12;11.73;;;9.03;;
13085;SDS011;6609;49.882;8.664;2023-06-22T07:32:39;11.27;;;8.83;;
13085;SDS011;6609;49.882;8.664;2023-06-22T07:35:07;14.50;;;8.83;;
13085;SDS011;6609;49.882;8.664;2023-06-22T07:37:34;16.20;;;9.43;;
13085;SDS011;6609;49.882;8.664;2023-06-22T07:40:02;10.10;;;8.63;;
13085;SDS011;6609;49.882;8.664;2023-06-22T07:42:31;12.90;;;9.00;;
13085;SDS011;6609;49.882;8.664;2023-06-22T07:44:58;12.33;;;9.60;;
13085;SDS011;6609;49.882;8.664;2023-06-22T07:47:28;15.30;;;9.13;;
13085;SDS011;6609;49.882;8.664;2023-06-22T07:49:54;14.07;;;9.77;;
13085;SDS011;6609;49.882;8.664;2023-06-22T07:52:23;13.10;;;9.40;;
13085;SDS011;6609;49.882;8.664;2023-06-22T07:54:50;12.93;;;9.50;;
13085;SDS011;6609;49.882;8.664;2023-06-22T07:57:18;13.90;;;9.33;;
13085;SDS011;6609;49.882;8.664;2023-06-22T07:59:45;15.03;;;8.97;;
13085;SDS011;6609;49.882;8.664;2023-06-22T08:02:12;14.27;;;10.07;;
13085;SDS011;6609;49.882;8.664;2023-06-22T08:04:40;10.83;;;8.93;;
13085;SDS011;6609;49.882;8.664;2023-06-22T08:07:07;14.97;;;9.27;;
13085;SDS011;6609;49.882;8.664;2023-06-22T08:09:45;11.90;;;8.77;;
13085;SDS011;6609;49.882;8.664;2023-06-22T08:12:13;12.97;;;9.20;;
13085;SDS011;6609;49.882;8.664;2023-06-22T08:14:41;12.43;;;8.83;;
13085;SDS011;6609;49.882;8.664;2023-06-22T08:17:09;10.63;;;8.50;;
13085;SDS011;6609;49.882;8.664;2023-06-22T08:19:36;11.53;;;9.10;;
13085;SDS011;6609;49.882;8.664;2023-06-22T08:22:05;13.43;;;9.43;;
13085;SDS011;6609;49.882;8.664;2023-06-22T08:24:32;9.67;;;8.67;;
13085;SDS011;6609;49.882;8.664;2023-06-22T08:26:59;15.23;;;8.83;;
13085;SDS011;6609;49.882;8.664;2023-06-22T08:29:28;11.87;;;8.60;;
13085;SDS011;6609;49.882;8.664;2023-06-22T08:31:54;10.90;;;9.00;;
13085;SDS011;6609;49.882;8.664;2023-06-22T08:34:21;10.37;;;8.40;;
13085;SDS011;6609;49.882;8.664;2023-06-22T08:36:50;11.87;;;8.37;;
13085;SDS011;6609;49.882;8.664;2023-06-22T08:39:19;12.03;;;8.93;;
13085;SDS011;6609;49.882;8.664;2023-06-22T08:41:46;13.20;;;8.63;;
13085;SDS011;6609;49.882;8.664;2023-06-22T08:44:13;10.17;;;8.77;;
13085;SDS011;6609;49.882;8.664;2023-06-22T08:46:43;11.90;;;9.27;;
13085;SDS011;6609;49.882;8.664;2023-06-22T08:49:11;10.67;;;8.47;;
13085;SDS011;6609;49.882;8.664;2023-06-22T08:51:37;12.13;;;9.00;;
13085;SDS011;6609;49.882;8.664;2023-06-22T08:54:07;14.83;;;9.43;;
13085;SDS011;6609;49.882;8.664;2023-06-22T08:57:01;12.60;;;8.43;;
13085;SDS011;6609;49.882;8.664;2023-06-22T08:59:29;12.17;;;9.07;;
13085;SDS011;6609;49.882;8.664;2023-06-22T09:01:56;10.13;;;8.20;;
13085;SDS011;6609;49.882;8.664;2023-06-22T09:04:23;12.73;;;8.27;;
13085;SDS011;6609;49.882;8.664;2023-06-22T09:06:51;12.10;;;8.43;;
13085;SDS011;6609;49.882;8.664;2023-06-22T09:09:18;11.70;;;8.03;;
13085;SDS011;6609;49.882;8.664;2023-06-22T09:11:45;11.07;;;8.67;;
13085;SDS011;6609;49.882;8.664;2023-06-22T09:14:13;10.70;;;8.20;;
13085;SDS011;6609;49.882;8.664;2023-06-22T09:16:40;10.97;;;8.20;;
13085;SDS011;6609;49.882;8.664;2023-06-22T09:19:07;14.50;;;8.23;;
13085;SDS011;6609;49.882;8.664;2023-06-22T09:21:34;8.67;;;7.63;;
13085;SDS011;6609;49.882;8.664;2023-06-22T09:24:01;9.37;;;7.83;;
13085;SDS011;6609;49.882;8.664;2023-06-22T09:26:29;11.20;;;7.63;;
13085;SDS011;6609;49.882;8.664;2023-06-22T09:28:56;11.70;;;8.43;;
13085;SDS011;6609;49.882;8.664;2023-06-22T09:31:24;11.17;;;7.23;;
13085;SDS011;6609;49.882;8.664;2023-06-22T09:33:51;8.70;;;7.77;;
13085;SDS011;6609;49.882;8.664;2023-06-22T09:36:19;10.00;;;7.40;;
13085;SDS011;6609;49.882;8.664;2023-06-22T09:38:47;11.80;;;8.33;;
13085;SDS011;6609;49.882;8.664;2023-06-22T09:41:20;8.93;;;7.77;;
13085;SDS011;6609;49.882;8.664;2023-06-22T09:43:47;9.63;;;7.77;;
13085;SDS011;6609;49.882;8.664;2023-06-22T09:46:15;10.73;;;8.27;;
13085;SDS011;6609;49.882;8.664;2023-06-22T09:48:43;10.97;;;8.20;;
13085;SDS011;6609;49.882;8.664;2023-06-22T09:51:10;10.37;;;7.77;;
13085;SDS011;6609;49.882;8.664;2023-06-22T09:53:37;8.73;;;6.17;;
13085;SDS011;6609;49.882;8.664;2023-06-22T09:56:04;10.43;;;7.57;;
13085;SDS011;6609;49.882;8.664;2023-06-22T09:58:32;9.83;;;7.40;;
13085;SDS011;6609;49.882;8.664;2023-06-22T10:00:59;11.57;;;7.30;;
13085;SDS011;6609;49.882;8.664;2023-06-22T10:03:26;10.20;;;7.40;;
13085;SDS011;6609;49.882;8.664;2023-06-22T10:05:54;9.17;;;7.63;;
13085;SDS011;6609;49.882;8.664;2023-06-22T10:08:21;12.00;;;7.47;;
13085;SDS011;6609;49.882;8.664;2023-06-22T10:10:48;9.77;;;7.40;;
13085;SDS011;6609;49.882;8.664;2023-06-22T10:13:15;10.77;;;7.80;;
13085;SDS011;6609;49.882;8.664;2023-06-22T10:15:45;9.17;;;6.97;;
13085;SDS011;6609;49.882;8.664;2023-06-22T10:18:14;7.63;;;6.70;;
13085;SDS011;6609;49.882;8.664;2023-06-22T10:20:42;9.27;;;7.20;;
13085;SDS011;6609;49.882;8.664;2023-06-22T10:23:10;10.27;;;7.50;;
13085;SDS011;6609;49.882;8.664;2023-06-22T10:25:37;10.27;;;6.80;;
13085;SDS011;6609;49.882;8.664;2023-06-22T10:28:04;9.63;;;7.20;;
13085;SDS011;6609;49.882;8.664;2023-06-22T10:30:32;11.13;;;8.00;;
13085;SDS011;6609;49.882;8.664;2023-06-22T10:32:59;19.90;;;8.83;;
13085;SDS011;6609;49.882;8.664;2023-06-22T10:35:26;13.93;;;8.23;;
13085;SDS011;6609;49.882;8.664;2023-06-22T10:37:54;11.37;;;7.07;;
13085;SDS011;6609;49.882;8.664;2023-06-22T10:40:22;9.13;;;7.73;;
13085;SDS011;6609;49.882;8.664;2023-06-22T10:42:49;13.57;;;8.20;;
13085;SDS011;6609;49.882;8.664;2023-06-22T10:45:16;12.70;;;8.70;;
13085;SDS011;6609;49.882;8.664;2023-06-22T10:47:44;13.17;;;7.57;;
13085;SDS011;6609;49.882;8.664;2023-06-22T10:50:11;12.27;;;7.57;;
13085;SDS011;6609;49.882;8.664;2023-06-22T10:52:38;12.37;;;8.00;;
13085;SDS011;6609;49.882;8.664;2023-06-22T10:55:07;11.63;;;7.60;;
13085;SDS011;6609;49.882;8.664;2023-06-22T10:57:35;13.60;;;8.37;;
13085;SDS011;6609;49.882;8.664;2023-06-22T11:00:04;14.43;;;8.30;;
13085;SDS011;6609;49.882;8.664;2023-06-22T11:02:36;13.17;;;7.53;;
13085;SDS011;6609;49.882;8.664;2023-06-22T11:05:04;14.30;;;7.40;;
13085;SDS011;6609;49.882;8.664;2023-06-22T11:07:43;10.33;;;7.37;;
13085;SDS011;6609;49.882;8.664;2023-06-22T11:10:10;14.33;;;7.63;;
13085;SDS011;6609;49.882;8.664;2023-06-22T11:12:38;15.47;;;7.63;;
13085;SDS011;6609;49.882;8.664;2023-06-22T11:15:06;14.17;;;8.00;;
13085;SDS011;6609;49.882;8.664;2023-06-22T11:17:33;16.00;;;7.83;;
13085;SDS011;6609;49.882;8.664;2023-06-22T11:20:00;14.97;;;7.97;;
13085;SDS011;6609;49.882;8.664;2023-06-22T11:22:29;16.87;;;8.47;;
13085;SDS011;6609;49.882;8.664;2023-06-22T11:24:58;13.17;;;8.00;;
13085;SDS011;6609;49.882;8.664;2023-06-22T11:27:25;15.03;;;8.23;;
13085;SDS011;6609;49.882;8.664;2023-06-22T11:29:54;15.23;;;8.73;;
13085;SDS011;6609;49.882;8.664;2023-06-22T11:32:22;12.90;;;8.47;;
13085;SDS011;6609;49.882;8.664;2023-06-22T11:34:49;11.53;;;7.70;;
13085;SDS011;6609;49.882;8.664;2023-06-22T11:37:16;16.17;;;8.17;;
13085;SDS011;6609;49.882;8.664;2023-06-22T11:39:43;11.80;;;7.90;;
13085;SDS011;6609;49.882;8.664;2023-06-22T11:42:10;16.50;;;9.00;;
13085;SDS011;6609;49.882;8.664;2023-06-22T11:44:37;14.90;;;8.57;;
13085;SDS011;6609;49.882;8.664;2023-06-22T11:47:06;16.20;;;9.17;;
13085;SDS011;6609;49.882;8.664;2023-06-22T11:49:34;16.40;;;8.93;;
13085;SDS011;6609;49.882;8.664;2023-06-22T11:52:01;20.37;;;9.00;;
13085;SDS011;6609;49.882;8.664;2023-06-22T11:54:28;12.30;;;7.50;;
13085;SDS011;6609;49.882;8.664;2023-06-22T11:56:55;20.27;;;8.93;;
13085;SDS011;6609;49.882;8.664;2023-06-22T11:59:22;18.70;;;9.20;;
13085;SDS011;6609;49.882;8.664;2023-06-22T12:01:49;17.80;;;8.30;;
13085;SDS011;6609;49.882;8.664;2023-06-22T12:04:18;19.30;;;8.67;;
13085;SDS011;6609;49.882;8.664;2023-06-22T12:06:45;22.30;;;8.83;;
13085;SDS011;6609;49.882;8.664;2023-06-22T12:09:12;15.40;;;8.40;;
13085;SDS011;6609;49.882;8.664;2023-06-22T12:11:39;13.67;;;8.33;;
13085;SDS011;6609;49.882;8.664;2023-06-22T12:14:10;15.83;;;7.90;;
13085;SDS011;6609;49.882;8.664;2023-06-22T12:16:37;21.17;;;8.70;;
13085;SDS011;6609;49.882;8.664;2023-06-22T12:19:04;17.13;;;8.67;;
13085;SDS011;6609;49.882;8.664;2023-06-22T12:21:33;17.07;;;8.93;;
13085;SDS011;6609;49.882;8.664;2023-06-22T12:24:00;19.87;;;8.40;;
13085;SDS011;6609;49.882;8.664;2023-06-22T12:26:27;15.83;;;8.23;;
13085;SDS011;6609;49.882;8.664;2023-06-22T12:28:54;13.73;;;7.70;;
13085;SDS011;6609;49.882;8.664;2023-06-22T12:31:21;18.53;;;8.53;;
13085;SDS011;6609;49.882;8.664;2023-06-22T12:33:48;19.73;;;9.17;;
13085;SDS011;6609;49.882;8.664;2023-06-22T12:36:15;15.37;;;8.67;;
13085;SDS011;6609;49.882;8.664;2023-06-22T12:38:44;15.53;;;8.23;;
13085;SDS011;6609;49.882;8.664;2023-06-22T12:41:10;14.83;;;8.27;;
13085;SDS011;6609;49.882;8.664;2023-06-22T12:43:37;15.40;;;8.37;;
13085;SDS011;6609;49.882;8.664;2023-06-22T12:46:04;13.93;;;7.50;;
13085;SDS011;6609;49.882;8.664;2023-06-22T12:48:31;13.87;;;7.90;;
13085;SDS011;6609;49.882;8.664;2023-06-22T12:50:58;14.23;;;8.00;;
13085;SDS011;6609;49.882;8.664;2023-06-22T12:53:25;14.43;;;7.70;;
13085;SDS011;6609;49.882;8.664;2023-06-22T12:55:54;19.40;;;8.97;;
13085;SDS011;6609;49.882;8.664;2023-06-22T12:58:21;15.17;;;8.17;;
13085;SDS011;6609;49.882;8.664;2023-06-22T13:00:48;14.00;;;7.97;;
13085;SDS011;6609;49.882;8.664;2023-06-22T13:03:15;14.43;;;8.07;;
13085;SDS011;6609;49.882;8.664;2023-06-22T13:05:42;11.77;;;7.60;;
13085;SDS011;6609;49.882;8.664;2023-06-22T13:08:09;18.23;;;7.50;;
13085;SDS011;6609;49.882;8.664;2023-06-22T13:10:36;15.10;;;7.37;;
13085;SDS011;6609;49.882;8.664;2023-06-22T13:13:05;14.00;;;7.40;;
13085;SDS011;6609;49.882;8.664;2023-06-22T13:15:31;15.70;;;8.30;;
13085;SDS011;6609;49.882;8.664;2023-06-22T13:17:58;13.80;;;6.93;;
13085;SDS011;6609;49.882;8.664;2023-06-22T13:20:25;14.40;;;7.67;;
13085;SDS011;6609;49.882;8.664;2023-06-22T13:22:53;12.73;;;6.73;;
13085;SDS011;6609;49.882;8.664;2023-06-22T13:25:21;12.60;;;7.07;;
13085;SDS011;6609;49.882;8.664;2023-06-22T13:27:51;9.00;;;6.77;;
13085;SDS011;6609;49.882;8.664;2023-06-22T13:30:20;11.57;;;7.30;;
13085;SDS011;6609;49.882;8.664;2023-06-22T13:32:46;16.73;;;7.33;;
13085;SDS011;6609;49.882;8.664;2023-06-22T13:35:13;7.63;;;5.60;;
13085;SDS011;6609;49.882;8.664;2023-06-22T13:37:40;16.23;;;7.47;;
13085;SDS011;6609;49.882;8.664;2023-06-22T13:40:07;11.30;;;6.80;;
13085;SDS011;6609;49.882;8.664;2023-06-22T13:42:35;14.93;;;6.20;;
13085;SDS011;6609;49.882;8.664;2023-06-22T13:45:02;14.63;;;6.43;;
13085;SDS011;6609;49.882;8.664;2023-06-22T13:47:30;13.90;;;6.60;;
13085;SDS011;6609;49.882;8.664;2023-06-22T13:49:58;11.37;;;6.33;;
13085;SDS011;6609;49.882;8.664;2023-06-22T13:52:25;13.40;;;6.33;;
13085;SDS011;6609;49.882;8.664;2023-06-22T13:54:52;9.73;;;5.47;;
13085;SDS011;6609;49.882;8.664;2023-06-22T13:57:18;14.53;;;6.40;;
13085;SDS011;6609;49.882;8.664;2023-06-22T13:59:45;14.23;;;5.57;;
13085;SDS011;6609;49.882;8.664;2023-06-22T14:02:13;15.50;;;6.23;;
13085;SDS011;6609;49.882;8.664;2023-06-22T14:04:41;12.83;;;6.43;;
13085;SDS011;6609;49.882;8.664;2023-06-22T14:07:08;12.47;;;6.30;;
13085;SDS011;6609;49.882;8.664;2023-06-22T14:09:35;12.13;;;5.67;;
13085;SDS011;6609;49.882;8.664;2023-06-22T14:12:05;10.30;;;5.73;;
13085;SDS011;6609;49.882;8.664;2023-06-22T14:14:33;14.13;;;5.50;;
13085;SDS011;6609;49.882;8.664;2023-06-22T14:17:00;15.20;;;5.47;;
13085;SDS011;6609;49.882;8.664;2023-06-22T14:19:27;12.47;;;5.60;;
13085;SDS011;6609;49.882;8.664;2023-06-22T14:21:55;16.87;;;6.60;;
13085;SDS011;6609;49.882;8.664;2023-06-22T14:24:22;14.27;;;5.57;;
13085;SDS011;6609;49.882;8.664;2023-06-22T14:26:49;12.33;;;5.57;;
13085;SDS011;6609;49.882;8.664;2023-06-22T14:29:17;8.87;;;4.80;;
13085;SDS011;6609;49.882;8.664;2023-06-22T14:31:44;11.23;;;5.43;;
13085;SDS011;6609;49.882;8.664;2023-06-22T14:34:12;12.63;;;6.07;;
13085;SDS011;6609;49.882;8.664;2023-06-22T14:36:39;12.63;;;5.23;;
13085;SDS011;6609;49.882;8.664;2023-06-22T14:39:07;10.83;;;5.33;;
13085;SDS011;6609;49.882;8.664;2023-06-22T14:41:34;11.10;;;4.73;;
13085;SDS011;6609;49.882;8.664;2023-06-22T14:44:01;12.33;;;4.90;;
13085;SDS011;6609;49.882;8.664;2023-06-22T14:46:28;11.27;;;4.37;;
13085;SDS011;6609;49.882;8.664;2023-06-22T14:48:55;11.50;;;5.47;;
13085;SDS011;6609;49.882;8.664;2023-06-22T14:51:22;11.97;;;4.77;;